Time;durP1;ratioP1;P1;durP2;ratioP2;P2;SDS_P1;SDS_P2;PMS_P1;PMS_P2;Temp;Humidity;BMP_temperature;BMP_pressure;BME280_temperature;BME280_humidity;BME280_pressure;Samples;Min_cycle;Max_cycle;Signal;HPM_P1;HPM_P2
2022/07/09 00:00:07;;;;;;;15.43;8.45;;;16.40;99.90;;;;;;4970950;28;20107;-94
2022/07/09 00:02:36;;;;;;;14.02;8.63;;;16.40;99.90;;;;;;5004955;28;20049;-93
2022/07/09 00:05:07;;;;;;;15.65;9.63;;;16.40;99.90;;;;;;4970086;28;20050;-93
2022/07/09 00:07:34;;;;;;;16.90;9.47;;;16.40;99.90;;;;;;5020616;28;20358;-92
2022/07/09 00:10:00;;;;;;;16.20;9.43;;;16.30;99.90;;;;;;4984939;28;20394;-94
2022/07/09 00:12:26;;;;;;;13.48;8.80;;;16.20;99.90;;;;;;4987469;28;20108;-94
2022/07/09 00:14:52;;;;;;;17.02;9.57;;;16.30;99.90;;;;;;4972596;28;20068;-94
2022/07/09 00:17:22;;;;;;;13.13;8.50;;;16.20;99.90;;;;;;4970715;28;20662;-93
2022/07/09 00:19:50;;;;;;;;;;;16.30;99.90;;;;;;4972720;28;20132;-93
2022/07/09 00:22:17;;;;;;;14.15;8.00;;;16.20;99.90;;;;;;4988402;28;19925;-93
2022/07/09 00:24:46;;;;;;;17.75;9.98;;;16.10;99.90;;;;;;4973462;28;20092;-94
2022/07/09 00:27:15;;;;;;;15.38;9.52;;;16.10;99.90;;;;;;5003111;28;20045;-94
2022/07/09 00:29:41;;;;;;;15.45;9.13;;;16.10;99.90;;;;;;4967096;28;20081;-94
2022/07/09 00:32:18;;;;;;;15.02;9.50;;;16.00;99.90;;;;;;5005756;28;20046;-94
2022/07/09 00:35:00;;;;;;;17.88;9.48;;;15.90;99.90;;;;;;5004513;28;20067;-93
2022/07/09 00:37:29;;;;;;;16.98;10.35;;;15.90;99.90;;;;;;5007455;28;20507;-93
2022/07/09 00:39:58;;;;;;;15.25;9.75;;;15.80;99.90;;;;;;4991216;28;20049;-93
2022/07/09 00:42:24;;;;;;;15.35;9.35;;;15.80;99.90;;;;;;5007946;28;20038;-94
2022/07/09 00:44:54;;;;;;;13.10;9.80;;;15.80;99.90;;;;;;4961025;28;20057;-93
2022/07/09 00:47:21;;;;;;;14.80;9.90;;;15.70;99.90;;;;;;4991546;28;20046;-94
2022/07/09 00:50:01;;;;;;;15.13;11.02;;;15.80;99.90;;;;;;4978057;28;20063;-94
2022/07/09 00:52:30;;;;;;;20.10;11.53;;;15.70;99.90;;;;;;5006440;28;20444;-94
2022/07/09 00:55:00;;;;;;;14.40;10.80;;;15.70;99.90;;;;;;5000742;28;20752;-95
2022/07/09 00:57:29;;;;;;;18.42;12.20;;;15.70;99.90;;;;;;4986286;28;20136;-94
2022/07/09 01:00:08;;;;;;;14.05;11.55;;;15.70;99.90;;;;;;5005976;28;20686;-94
2022/07/09 01:02:35;;;;;;;14.73;11.70;;;15.60;99.90;;;;;;4989178;28;20045;-94
2022/07/09 01:09:26;;;;;;;16.42;11.02;;;15.60;99.90;;;;;;4867286;29;20048;-94
2022/07/09 01:15:44;;;;;;;15.10;10.73;;;15.40;99.90;;;;;;4870596;29;20539;-94
2022/07/09 01:22:17;;;;;;;17.92;11.05;;;15.20;99.90;;;;;;5007686;28;20058;-94
2022/07/09 01:24:44;;;;;;;17.30;11.55;;;15.20;99.90;;;;;;5008139;28;20513;-93
2022/07/09 01:27:14;;;;;;;17.15;12.02;;;15.20;99.90;;;;;;5002362;28;20053;-93
2022/07/09 01:29:52;;;;;;;17.35;11.50;;;15.20;99.90;;;;;;5025517;28;20057;-94
2022/07/09 01:32:28;;;;;;;17.23;11.23;;;15.30;99.90;;;;;;4991513;28;20042;-93
2022/07/09 01:34:54;;;;;;;17.17;11.93;;;15.30;99.90;;;;;;4998412;28;20037;-93
2022/07/09 01:37:34;;;;;;;14.02;10.75;;;15.30;99.90;;;;;;4990718;28;20140;-94
2022/07/09 01:40:00;;;;;;;18.67;11.40;;;15.40;99.90;;;;;;4990500;28;20046;-93
2022/07/09 01:42:30;;;;;;;16.40;11.20;;;15.50;99.90;;;;;;4989607;28;20457;-94
2022/07/09 01:44:56;;;;;;;18.38;11.30;;;15.50;99.90;;;;;;4989351;28;20450;-94
2022/07/09 01:47:26;;;;;;;19.75;12.43;;;15.60;99.90;;;;;;4972557;28;20077;-93
2022/07/09 01:49:52;;;;;;;15.85;11.90;;;15.60;99.90;;;;;;4990552;28;20046;-94
2022/07/09 01:52:19;;;;;;;15.23;11.10;;;15.60;99.90;;;;;;4972394;28;20042;-94
2022/07/09 01:54:46;;;;;;;17.13;12.30;;;15.60;99.90;;;;;;5022926;28;20050;-94
2022/07/09 01:57:16;;;;;;;18.60;12.05;;;15.60;99.90;;;;;;4991029;28;20045;-95
2022/07/09 02:00:00;;;;;;;17.92;11.55;;;15.60;99.90;;;;;;4990703;28;20046;-94
2022/07/09 02:02:32;;;;;;;22.02;13.32;;;15.60;99.90;;;;;;4975468;28;20360;-96
2022/07/09 02:05:10;;;;;;;22.40;13.68;;;15.60;99.90;;;;;;5006755;28;20045;-94
2022/07/09 02:07:37;;;;;;;20.40;13.82;;;15.60;99.90;;;;;;5021281;28;20046;-95
2022/07/09 02:10:05;;;;;;;19.15;13.38;;;15.60;99.90;;;;;;4960390;28;20400;-94
2022/07/09 02:12:32;;;;;;;21.10;13.07;;;15.60;99.90;;;;;;5003007;28;20068;-94
2022/07/09 02:14:58;;;;;;;18.38;12.88;;;15.60;99.90;;;;;;5027984;28;20099;-92
2022/07/09 02:17:32;;;;;;;19.85;13.52;;;15.60;99.90;;;;;;4995923;28;20552;-94
2022/07/09 02:20:02;;;;;;;19.35;13.95;;;15.60;99.90;;;;;;5005279;28;20057;-94
2022/07/09 02:22:31;;;;;;;16.17;12.85;;;15.60;99.90;;;;;;5008085;28;20053;-94
2022/07/09 02:25:12;;;;;;;21.30;14.68;;;15.60;99.90;;;;;;4975400;28;20493;-94
2022/07/09 02:27:40;;;;;;;23.13;14.80;;;15.60;99.90;;;;;;4990328;28;20046;-94
2022/07/09 02:30:09;;;;;;;18.55;12.93;;;15.60;99.90;;;;;;5006932;28;20567;-94
2022/07/09 02:32:44;;;;;;;19.10;14.20;;;15.70;99.90;;;;;;4976477;28;20439;-94
2022/07/09 02:35:16;;;;;;;27.90;15.30;;;15.60;99.90;;;;;;4970401;28;20095;-95
2022/07/09 02:37:52;;;;;;;19.48;14.02;;;15.60;99.90;;;;;;5007001;28;20166;-94
2022/07/09 02:40:31;;;;;;;22.50;14.75;;;15.70;99.90;;;;;;4985058;28;20153;-94
2022/07/09 02:42:58;;;;;;;20.90;14.18;;;15.70;99.90;;;;;;5002515;28;20069;-94
2022/07/09 02:45:31;;;;;;;20.48;14.23;;;15.60;99.90;;;;;;5003719;28;20093;-94
2022/07/09 02:47:57;;;;;;;20.63;14.35;;;15.60;99.90;;;;;;4988638;28;20157;-95
2022/07/09 02:50:30;;;;;;;19.25;13.75;;;15.60;99.90;;;;;;4990796;28;20131;-94
2022/07/09 02:53:00;;;;;;;16.55;13.52;;;15.60;99.90;;;;;;4994165;28;20120;-94
2022/07/09 02:55:29;;;;;;;19.35;13.98;;;15.60;99.90;;;;;;4958185;28;20111;-95
2022/07/09 02:57:59;;;;;;;20.17;14.35;;;15.60;99.90;;;;;;5005746;28;20049;-94
2022/07/09 03:00:25;;;;;;;19.33;14.02;;;15.50;99.90;;;;;;5005049;28;20056;-94
2022/07/09 03:02:55;;;;;;;18.73;14.77;;;15.60;99.90;;;;;;4981892;28;20042;-94
2022/07/09 03:05:22;;;;;;;22.70;14.02;;;15.60;99.90;;;;;;4960753;28;20125;-94
2022/07/09 03:07:48;;;;;;;19.83;14.48;;;15.60;99.90;;;;;;5010305;28;20054;-94
2022/07/09 03:10:21;;;;;;;17.58;12.68;;;15.60;99.90;;;;;;4960650;28;20041;-94
2022/07/09 03:12:48;;;;;;;17.52;13.20;;;15.60;99.90;;;;;;4996480;28;20140;-94
2022/07/09 03:15:26;;;;;;;18.42;13.98;;;15.60;99.90;;;;;;4993458;28;20638;-92
2022/07/09 03:17:52;;;;;;;17.95;13.25;;;15.60;99.90;;;;;;5020004;28;20046;-94
2022/07/09 03:20:22;;;;;;;23.05;13.70;;;15.60;99.90;;;;;;5016566;28;20344;-94
2022/07/09 03:22:56;;;;;;;18.88;13.25;;;15.70;99.90;;;;;;5013578;28;20037;-95
2022/07/09 03:25:30;;;;;;;;;;;15.70;99.90;;;;;;5026829;28;20045;-94
2022/07/09 03:27:59;;;;;;;16.85;12.18;;;15.70;99.90;;;;;;5010882;28;19910;-94
2022/07/09 03:30:38;;;;;;;14.98;12.07;;;15.70;99.90;;;;;;5014116;28;20053;-94
2022/07/09 03:33:05;;;;;;;16.05;11.60;;;15.80;99.90;;;;;;4991956;28;20053;-95
2022/07/09 03:35:34;;;;;;;18.90;12.48;;;15.70;99.90;;;;;;4958581;28;20053;-95
2022/07/09 03:38:00;;;;;;;18.08;12.55;;;15.70;99.90;;;;;;4970922;28;20042;-94
2022/07/09 03:40:27;;;;;;;17.63;12.90;;;15.70;99.90;;;;;;5004077;28;20053;-94
2022/07/09 03:42:54;;;;;;;21.95;13.25;;;15.60;99.90;;;;;;5007671;28;20041;-94
2022/07/09 03:45:22;;;;;;;19.90;12.75;;;15.60;99.90;;;;;;4991313;28;20123;-94
2022/07/09 03:47:50;;;;;;;20.27;13.27;;;15.60;99.90;;;;;;4956143;28;20521;-94
2022/07/09 03:50:16;;;;;;;18.27;13.25;;;15.60;99.90;;;;;;4971775;28;20476;-94
2022/07/09 03:52:42;;;;;;;16.92;12.45;;;15.60;99.90;;;;;;4986242;28;20509;-93
2022/07/09 03:55:12;;;;;;;18.25;12.93;;;15.60;99.90;;;;;;5005706;28;20418;-93
2022/07/09 03:57:39;;;;;;;25.48;14.38;;;15.60;99.90;;;;;;4989328;28;20056;-93
2022/07/09 04:00:10;;;;;;;21.05;13.88;;;15.50;99.90;;;;;;4987215;28;20072;-92
2022/07/09 04:02:40;;;;;;;19.90;13.80;;;15.50;99.90;;;;;;5021027;28;20045;-92
2022/07/09 04:05:20;;;;;;;20.67;14.27;;;15.50;99.90;;;;;;4972784;28;20049;-93
2022/07/09 04:07:53;;;;;;;20.85;14.32;;;15.50;99.90;;;;;;4994591;28;20068;-92
2022/07/09 04:10:21;;;;;;;19.10;14.52;;;15.50;99.90;;;;;;5004455;28;20187;-93
2022/07/09 04:12:57;;;;;;;20.08;14.40;;;15.60;99.90;;;;;;4990701;28;20069;-93
2022/07/09 04:15:23;;;;;;;23.30;13.68;;;15.60;99.90;;;;;;5022026;28;20050;-93
2022/07/09 04:17:50;;;;;;;19.80;14.70;;;15.70;99.90;;;;;;5009823;28;20074;-93
2022/07/09 04:20:16;;;;;;;19.55;14.32;;;15.70;99.90;;;;;;4957561;28;20189;-93
2022/07/09 04:22:46;;;;;;;18.42;14.13;;;15.70;99.90;;;;;;4991802;28;20052;-93
2022/07/09 04:25:14;;;;;;;20.23;13.73;;;15.80;99.90;;;;;;4990879;28;20042;-94
2022/07/09 04:27:46;;;;;;;22.55;14.35;;;15.80;99.90;;;;;;4990218;28;20515;-93
2022/07/09 04:30:12;;;;;;;20.00;14.23;;;15.80;99.90;;;;;;5003803;28;20563;-93
2022/07/09 04:32:47;;;;;;;21.08;14.02;;;15.80;99.90;;;;;;5011648;28;20350;-93
2022/07/09 04:35:18;;;;;;;18.42;13.48;;;15.90;99.90;;;;;;5027197;28;20045;-93
2022/07/09 04:37:51;;;;;;;22.88;15.18;;;15.90;99.90;;;;;;4972843;28;20046;-94
2022/07/09 04:40:19;;;;;;;17.10;14.02;;;15.90;99.90;;;;;;4999463;28;20112;-93
2022/07/09 04:42:49;;;;;;;;;;;15.90;99.90;;;;;;5020911;28;20158;-94
2022/07/09 04:45:16;;;;;;;20.35;14.15;;;16.00;99.90;;;;;;5021403;28;19921;-94
2022/07/09 04:47:45;;;;;;;19.25;13.80;;;16.00;99.90;;;;;;4988236;28;20047;-94
2022/07/09 04:50:15;;;;;;;21.88;14.77;;;16.10;99.90;;;;;;4998361;28;20477;-93
2022/07/09 04:52:42;;;;;;;16.45;12.93;;;16.20;99.90;;;;;;5009292;28;20046;-92
2022/07/09 04:55:15;;;;;;;18.98;14.80;;;16.20;99.90;;;;;;5008480;28;20052;-94
2022/07/09 04:57:46;;;;;;;22.42;13.48;;;16.30;99.90;;;;;;5010679;28;20095;-95
2022/07/09 05:00:22;;;;;;;17.92;13.55;;;16.40;99.90;;;;;;5004062;28;20045;-90
2022/07/09 05:02:49;;;;;;;15.98;12.57;;;16.50;99.90;;;;;;5008977;28;20462;-90
2022/07/09 05:05:16;;;;;;;18.48;13.18;;;16.60;99.90;;;;;;4977048;28;20400;-91
2022/07/09 05:07:42;;;;;;;15.43;12.85;;;16.70;99.90;;;;;;5011435;28;20058;-91
2022/07/09 05:10:14;;;;;;;17.38;13.63;;;16.90;99.90;;;;;;5020890;28;20052;-91
2022/07/09 05:12:41;;;;;;;17.33;13.00;;;16.90;99.90;;;;;;4984037;28;20101;-91
2022/07/09 05:15:08;;;;;;;18.17;12.35;;;16.90;99.90;;;;;;5013161;28;20034;-91
2022/07/09 05:17:36;;;;;;;16.75;13.00;;;16.90;99.90;;;;;;4999653;28;20083;-91
2022/07/09 05:20:04;;;;;;;17.00;12.23;;;17.00;99.90;;;;;;4995225;28;20048;-91
2022/07/09 05:22:36;;;;;;;16.50;12.95;;;17.00;99.90;;;;;;5020422;28;20065;-91
2022/07/09 05:25:06;;;;;;;16.80;12.10;;;17.00;99.90;;;;;;4983436;28;20504;-91
2022/07/09 05:27:41;;;;;;;19.90;12.55;;;17.00;99.90;;;;;;5048705;28;20654;-89
2022/07/09 05:30:08;;;;;;;18.17;11.43;;;16.90;99.90;;;;;;5003441;28;20038;-93
2022/07/09 05:32:36;;;;;;;15.00;10.85;;;17.00;99.90;;;;;;5017688;28;20128;-91
2022/07/09 05:35:04;;;;;;;14.63;10.85;;;17.10;99.90;;;;;;4980385;28;20038;-92
2022/07/09 05:37:30;;;;;;;16.30;10.95;;;17.20;99.90;;;;;;5007739;28;20046;-91
2022/07/09 05:39:58;;;;;;;15.50;11.50;;;17.20;99.90;;;;;;4998519;28;20045;-91
2022/07/09 05:42:24;;;;;;;14.77;10.38;;;17.30;99.90;;;;;;5008166;28;20129;-92
2022/07/09 05:44:51;;;;;;;15.20;10.88;;;17.40;99.90;;;;;;4994520;28;20080;-91
2022/07/09 05:47:17;;;;;;;14.75;10.93;;;17.50;99.90;;;;;;4995277;28;20050;-91
2022/07/09 05:49:44;;;;;;;13.35;9.77;;;17.70;99.90;;;;;;5012138;28;20072;-90
2022/07/09 05:52:11;;;;;;;12.93;8.57;;;17.70;99.90;;;;;;4998682;28;20069;-92
2022/07/09 05:54:37;;;;;;;13.38;9.40;;;17.80;99.90;;;;;;4996806;28;20042;-92
2022/07/09 05:57:04;;;;;;;10.25;9.25;;;17.90;99.90;;;;;;4972162;28;20081;-91
2022/07/09 05:59:33;;;;;;;10.40;8.93;;;17.90;99.90;;;;;;4989985;28;20057;-91
2022/07/09 06:02:02;;;;;;;12.25;8.82;;;18.00;99.90;;;;;;5005028;28;20053;-91
2022/07/09 06:04:30;;;;;;;11.65;8.75;;;18.00;99.90;;;;;;5003791;28;20527;-92
2022/07/09 06:06:56;;;;;;;12.55;8.02;;;18.00;99.90;;;;;;5006111;28;20049;-91
2022/07/09 06:09:25;;;;;;;12.52;8.02;;;18.00;99.90;;;;;;5007677;28;20053;-92
2022/07/09 06:11:52;;;;;;;12.52;7.93;;;18.10;99.90;;;;;;4975211;28;20034;-92
2022/07/09 06:14:19;;;;;;;9.05;7.03;;;18.20;99.90;;;;;;4992996;28;20049;-91
2022/07/09 06:16:46;;;;;;;11.25;6.85;;;18.30;99.90;;;;;;4962734;28;20536;-91
2022/07/09 06:19:14;;;;;;;10.70;6.85;;;18.40;99.90;;;;;;4990922;28;20058;-92
2022/07/09 06:21:41;;;;;;;10.98;6.65;;;18.50;99.90;;;;;;4955088;28;20049;-92
2022/07/09 06:24:07;;;;;;;14.90;7.00;;;18.70;99.90;;;;;;4974611;28;20431;-92
2022/07/09 06:26:33;;;;;;;10.02;6.53;;;18.70;99.90;;;;;;4974586;28;20049;-91
2022/07/09 06:29:00;;;;;;;9.60;6.30;;;18.70;99.90;;;;;;5001529;28;20053;-91
2022/07/09 06:31:29;;;;;;;7.35;5.38;;;18.70;99.90;;;;;;4971526;28;20048;-91
2022/07/09 06:33:56;;;;;;;10.40;5.28;;;18.60;99.90;;;;;;4971435;28;20420;-91
2022/07/09 06:36:23;;;;;;;11.52;5.70;;;18.70;99.90;;;;;;4971187;28;20080;-91
2022/07/09 06:41:34;;;;;;;9.45;5.82;;;18.80;99.90;;;;;;5003039;28;20551;-91
2022/07/09 06:44:00;;;;;;;10.02;6.07;;;18.70;99.90;;;;;;4987105;28;20552;-92
2022/07/09 06:46:26;;;;;;;9.98;5.90;;;18.80;99.90;;;;;;5037752;28;20104;-91
2022/07/09 06:48:52;;;;;;;7.85;5.28;;;18.70;99.90;;;;;;4957033;28;20144;-92
2022/07/09 06:51:19;;;;;;;8.68;5.10;;;18.80;99.90;;;;;;4990112;28;20041;-90
2022/07/09 06:53:45;;;;;;;8.27;5.53;;;18.80;99.90;;;;;;4991865;28;20045;-91
2022/07/09 06:56:12;;;;;;;8.27;4.85;;;18.80;99.90;;;;;;4974503;28;20042;-91
2022/07/09 06:58:38;;;;;;;7.18;5.30;;;18.80;99.90;;;;;;4974768;28;20153;-91
2022/07/09 07:01:05;;;;;;;8.88;6.07;;;18.80;99.90;;;;;;4959601;28;20331;-89
2022/07/09 07:03:31;;;;;;;8.65;5.65;;;18.80;99.90;;;;;;5005787;28;20045;-81
2022/07/09 07:05:58;;;;;;;10.52;5.60;;;18.80;99.90;;;;;;4985864;28;20046;-81
2022/07/09 07:08:24;;;;;;;7.90;5.10;;;18.90;99.90;;;;;;5001176;28;20065;-82
2022/07/09 07:10:50;;;;;;;9.35;4.90;;;19.00;99.90;;;;;;4968098;28;20045;-81
2022/07/09 07:13:16;;;;;;;15.82;12.48;;;19.00;99.90;;;;;;4997005;28;20092;-80
2022/07/09 07:15:44;;;;;;;8.50;5.35;;;19.00;99.90;;;;;;5015768;28;20607;-81
2022/07/09 07:18:10;;;;;;;10.27;5.68;;;19.20;99.90;;;;;;5016446;28;20053;-81
2022/07/09 07:20:39;;;;;;;7.43;5.43;;;19.30;99.90;;;;;;5003336;28;20054;-81
2022/07/09 07:23:06;;;;;;;7.85;5.13;;;19.40;99.90;;;;;;4981803;28;20504;-82
2022/07/09 07:25:32;;;;;;;8.52;4.72;;;19.50;99.90;;;;;;5012070;28;20131;-82
2022/07/09 07:27:58;;;;;;;9.70;4.53;;;19.50;99.90;;;;;;4951468;28;20041;-81
2022/07/09 07:30:24;;;;;;;7.20;4.95;;;19.50;99.90;;;;;;4985003;28;20046;-80
2022/07/09 07:32:50;;;;;;;7.28;4.13;;;19.50;99.90;;;;;;4959471;28;20056;-81
2022/07/09 07:35:16;;;;;;;16.70;13.07;;;19.50;99.90;;;;;;4967474;28;20049;-82
2022/07/09 07:37:43;;;;;;;8.27;5.40;;;19.60;99.90;;;;;;5003561;28;20521;-80
2022/07/09 07:40:10;;;;;;;7.07;4.22;;;19.50;99.90;;;;;;5013973;28;20083;-82
2022/07/09 07:42:36;;;;;;;5.97;4.05;;;19.40;99.90;;;;;;4987727;28;20140;-81
2022/07/09 07:45:03;;;;;;;7.35;4.40;;;19.30;99.90;;;;;;4986527;28;20041;-81
2022/07/09 07:47:29;;;;;;;9.65;3.97;;;19.20;99.90;;;;;;5000182;28;20046;-80
2022/07/09 07:49:55;;;;;;;9.57;7.88;;;19.20;99.90;;;;;;5054080;28;20085;-80
2022/07/09 07:52:21;;;;;;;7.15;4.68;;;19.10;99.90;;;;;;5020101;28;20069;-81
2022/07/09 07:54:47;;;;;;;11.10;8.57;;;19.10;99.90;;;;;;4995898;28;20612;-81
2022/07/09 07:57:13;;;;;;;6.38;3.85;;;19.10;99.90;;;;;;4958559;28;20141;-81
2022/07/09 07:59:40;;;;;;;8.23;4.03;;;19.10;99.90;;;;;;4966402;28;20054;-82
2022/07/09 08:02:07;;;;;;;10.15;5.22;;;19.20;99.90;;;;;;5022831;28;20081;-81
2022/07/09 08:04:33;;;;;;;8.18;3.30;;;19.20;99.90;;;;;;5002099;28;20089;-81
2022/07/09 08:06:59;;;;;;;9.10;3.17;;;19.20;99.90;;;;;;4966365;28;20645;-81
2022/07/09 08:09:25;;;;;;;7.63;3.25;;;19.20;99.90;;;;;;5001450;28;20050;-82
2022/07/09 08:11:51;;;;;;;6.93;4.20;;;19.30;99.90;;;;;;4969624;28;20103;-81
2022/07/09 08:14:18;;;;;;;4.88;2.80;;;19.60;99.90;;;;;;4965461;28;20034;-82
2022/07/09 08:16:44;;;;;;;6.75;5.35;;;19.90;99.90;;;;;;4970210;28;20494;-81
2022/07/09 08:19:10;;;;;;;7.13;4.18;;;20.40;99.90;;;;;;5001492;28;20046;-82
2022/07/09 08:21:36;;;;;;;8.10;5.65;;;20.70;99.90;;;;;;4999292;28;20045;-81
2022/07/09 08:24:05;;;;;;;5.88;2.85;;;21.00;99.90;;;;;;4984996;28;20046;-82
2022/07/09 08:26:31;;;;;;;9.80;7.75;;;21.20;99.90;;;;;;4972233;28;20072;-81
2022/07/09 08:28:57;;;;;;;7.13;4.30;;;21.20;99.90;;;;;;4984159;28;20046;-82
2022/07/09 08:31:24;;;;;;;5.35;3.30;;;21.40;99.90;;;;;;5001387;28;20046;-82
2022/07/09 08:33:50;;;;;;;3.83;1.98;;;21.60;99.90;;;;;;5000598;28;20593;-82
2022/07/09 08:36:17;;;;;;;3.80;2.30;;;21.90;99.90;;;;;;4988074;28;20045;-81
2022/07/09 08:38:44;;;;;;;5.68;2.20;;;22.10;99.90;;;;;;5033033;28;20089;-82
2022/07/09 08:41:12;;;;;;;5.18;3.15;;;22.20;99.90;;;;;;4997702;28;20046;-82
2022/07/09 08:43:39;;;;;;;4.65;1.90;;;22.80;99.90;;;;;;5001377;28;20045;-81
2022/07/09 08:46:06;;;;;;;4.88;1.50;;;22.80;99.90;;;;;;5018769;28;20069;-81
2022/07/09 08:48:36;;;;;;;4.13;1.83;;;22.70;99.90;;;;;;4964790;28;20054;-81
2022/07/09 08:51:03;;;;;;;8.20;6.07;;;22.80;99.90;;;;;;4978744;28;20274;-81
2022/07/09 08:53:30;;;;;;;16.85;15.07;;;23.50;99.90;;;;;;4999381;28;20073;-82
2022/07/09 08:55:57;;;;;;;7.10;6.40;;;24.10;99.90;;;;;;5018915;28;20084;-81
2022/07/09 08:58:24;;;;;;;5.38;3.28;;;24.30;99.90;;;;;;4984149;28;20132;-81
2022/07/09 09:00:50;;;;;;;7.47;6.22;;;24.20;99.90;;;;;;4983405;28;20536;-81
2022/07/09 09:03:18;;;;;;;12.23;4.63;;;24.60;99.90;;;;;;4984151;28;20049;-81
2022/07/09 09:05:44;;;;;;;3.78;2.10;;;24.80;99.90;;;;;;4966410;28;20384;-81
2022/07/09 09:08:23;;;;;;;13.98;6.57;;;24.50;99.90;;;;;;5013634;28;20156;-81
2022/07/09 09:10:50;;;;;;;28.08;13.65;;;24.10;99.90;;;;;;4982943;28;20053;-81
2022/07/09 09:13:16;;;;;;;6.75;3.35;;;24.80;99.90;;;;;;4982909;28;20274;-82
2022/07/09 09:15:43;;;;;;;1.98;1.23;;;24.90;99.90;;;;;;4984787;28;20410;-81
2022/07/09 09:18:10;;;;;;;1.70;1.00;;;24.90;99.90;;;;;;4979960;28;20097;-81
2022/07/09 09:20:38;;;;;;;2.75;1.00;;;24.40;99.90;;;;;;5018874;28;20042;-81
2022/07/09 09:23:10;;;;;;;4.82;1.70;;;23.70;99.90;;;;;;4987767;28;20053;-81
2022/07/09 09:25:37;;;;;;;3.35;1.30;;;23.40;99.90;;;;;;4987256;28;20050;-80
2022/07/09 09:28:03;;;;;;;2.58;1.08;;;22.80;99.90;;;;;;4998142;28;20164;-81
2022/07/09 09:30:30;;;;;;;3.10;1.02;;;22.10;99.90;;;;;;5017386;28;20208;-81
2022/07/09 09:33:01;;;;;;;3.20;1.30;;;21.60;99.90;;;;;;4981536;28;20046;-81
2022/07/09 09:35:33;;;;;;;2.17;0.90;;;21.70;99.90;;;;;;5013976;28;20081;-80
2022/07/09 09:38:00;;;;;;;3.58;1.50;;;21.70;99.90;;;;;;5016866;28;20049;-81
2022/07/09 09:40:27;;;;;;;4.38;1.10;;;21.90;99.90;;;;;;5005860;28;20061;-80
2022/07/09 09:42:54;;;;;;;2.50;1.17;;;22.50;99.90;;;;;;5003309;28;20045;-80
2022/07/09 09:45:24;;;;;;;2.28;1.02;;;23.00;99.90;;;;;;5005988;28;20045;-81
2022/07/09 09:47:51;;;;;;;2.20;1.05;;;23.10;99.90;;;;;;4986808;28;20075;-81
2022/07/09 09:50:22;;;;;;;4.13;1.00;;;23.30;99.90;;;;;;4979102;28;20038;-80
2022/07/09 09:52:51;;;;;;;3.60;0.98;;;23.40;99.90;;;;;;4987045;28;20500;-81
2022/07/09 09:55:19;;;;;;;5.95;3.13;;;23.80;99.90;;;;;;5031712;28;20117;-82
2022/07/09 09:57:46;;;;;;;26.02;23.33;;;24.10;99.90;;;;;;4999109;28;20053;-81
2022/07/09 10:00:16;;;;;;;41.53;37.50;;;24.10;99.90;;;;;;4982681;28;20046;-81
2022/07/09 10:02:44;;;;;;;15.75;6.28;;;24.00;99.90;;;;;;5001742;28;20046;-81
2022/07/09 10:05:11;;;;;;;24.13;9.10;;;23.90;99.90;;;;;;5013099;28;20358;-80
2022/07/09 10:07:40;;;;;;;9.32;5.50;;;23.90;99.90;;;;;;5005470;28;20432;-81
2022/07/09 10:10:07;;;;;;;7.13;2.95;;;23.90;99.90;;;;;;5034112;28;20680;-80
2022/07/09 10:12:35;;;;;;;4.93;1.77;;;24.20;99.90;;;;;;4964481;28;20683;-80
2022/07/09 10:15:02;;;;;;;4.40;1.63;;;24.60;99.90;;;;;;5016731;28;20042;-80
2022/07/09 10:17:28;;;;;;;5.85;2.05;;;24.60;99.90;;;;;;5004287;28;20057;-80
2022/07/09 10:20:03;;;;;;;2.67;1.20;;;25.20;99.90;;;;;;4989400;28;20046;-79
2022/07/09 10:22:38;;;;;;;3.25;0.98;;;25.20;99.90;;;;;;4988596;28;20061;-79
2022/07/09 10:25:12;;;;;;;4.55;2.03;;;24.90;99.90;;;;;;5001959;28;20045;-81
2022/07/09 10:27:43;;;;;;;3.97;1.40;;;24.80;99.90;;;;;;4987578;28;20046;-82
2022/07/09 10:30:22;;;;;;;6.63;3.47;;;24.80;99.90;;;;;;5001193;28;20047;-86
2022/07/09 10:33:08;;;;;;;3.00;1.65;;;24.60;99.90;;;;;;5004925;28;20044;-86
2022/07/09 10:35:45;;;;;;;7.22;6.35;;;25.10;99.90;;;;;;4990516;28;20513;-85
2022/07/09 10:38:13;;;;;;;5.93;2.88;;;25.50;99.90;;;;;;5018580;28;20045;-87
2022/07/09 10:40:48;;;;;;;18.38;15.80;;;25.10;99.90;;;;;;4991255;28;20046;-86
2022/07/09 10:43:14;;;;;;;5.72;3.03;;;25.20;99.90;;;;;;5020664;28;20126;-86
2022/07/09 10:45:47;;;;;;;4.03;1.20;;;25.10;99.90;;;;;;5023110;28;20161;-85
2022/07/09 10:48:15;;;;;;;7.25;4.68;;;24.90;99.90;;;;;;4999904;28;20419;-85
2022/07/09 10:50:44;;;;;;;4.80;1.48;;;24.90;99.90;;;;;;4988100;28;20053;-85
2022/07/09 10:53:11;;;;;;;3.47;1.05;;;24.90;99.90;;;;;;4990393;28;20518;-85
2022/07/09 10:55:43;;;;;;;4.85;1.52;;;25.00;99.90;;;;;;5001728;28;20525;-86
2022/07/09 10:58:24;;;;;;;3.45;1.67;;;25.10;99.90;;;;;;5000682;28;20053;-86
2022/07/09 11:00:59;;;;;;;7.13;1.70;;;25.10;99.90;;;;;;5021213;28;20050;-85
2022/07/09 11:03:27;;;;;;;4.10;1.30;;;24.40;99.90;;;;;;4985741;28;20060;-86
2022/07/09 11:05:53;;;;;;;4.32;1.25;;;24.60;99.90;;;;;;5001992;28;20453;-86
2022/07/09 11:08:19;;;;;;;5.95;2.60;;;24.40;99.90;;;;;;5002955;28;20054;-86
2022/07/09 11:10:46;;;;;;;2.92;1.10;;;24.20;99.90;;;;;;5034059;28;20045;-86
2022/07/09 11:13:12;;;;;;;2.65;1.00;;;24.10;99.90;;;;;;4983264;28;20038;-85
2022/07/09 11:15:39;;;;;;;3.67;1.20;;;24.20;99.90;;;;;;4996781;28;20100;-85
2022/07/09 11:18:07;;;;;;;4.20;1.10;;;23.90;99.90;;;;;;5017117;28;20050;-85
2022/07/09 11:20:45;;;;;;;1.95;0.95;;;24.20;99.90;;;;;;5017036;28;20103;-86
2022/07/09 11:23:13;;;;;;;3.90;1.38;;;24.80;99.90;;;;;;5028344;28;20050;-86
2022/07/09 11:25:40;;;;;;;6.57;1.40;;;25.00;99.90;;;;;;4984585;28;20505;-86
2022/07/09 11:28:06;;;;;;;3.60;1.70;;;25.10;99.90;;;;;;5001979;28;20489;-85
2022/07/09 11:30:33;;;;;;;4.63;1.60;;;25.70;99.90;;;;;;4982807;28;20084;-85
2022/07/09 11:33:00;;;;;;;5.70;1.90;;;25.80;99.90;;;;;;5019342;28;20053;-87
2022/07/09 11:35:31;;;;;;;2.80;1.23;;;25.50;99.90;;;;;;4984746;28;20069;-86
2022/07/09 11:38:00;;;;;;;5.40;1.73;;;25.60;99.90;;;;;;5017532;28;20056;-85
2022/07/09 11:40:27;;;;;;;5.70;2.13;;;25.50;99.90;;;;;;5002971;28;20050;-86
2022/07/09 11:42:53;;;;;;;5.13;2.30;;;25.30;99.90;;;;;;5017278;28;20399;-86
2022/07/09 11:45:24;;;;;;;6.82;1.65;;;25.50;99.90;;;;;;4986920;28;20050;-86
2022/07/09 11:47:50;;;;;;;6.68;1.73;;;25.80;99.90;;;;;;5019603;28;20052;-86
2022/07/09 11:50:21;;;;;;;4.85;1.73;;;25.40;99.90;;;;;;5001863;28;20080;-87
2022/07/09 11:52:49;;;;;;;40.72;36.38;;;25.80;99.90;;;;;;4999896;28;20127;-86
2022/07/09 11:55:18;;;;;;;12.60;9.10;;;26.30;99.90;;;;;;4985065;28;20128;-86
2022/07/09 11:57:59;;;;;;;22.10;17.35;;;26.60;99.90;;;;;;5015136;28;20053;-86
2022/07/09 12:00:27;;;;;;;;;;;26.20;99.90;;;;;;4980414;28;20049;-87
2022/07/09 12:02:55;;;;;;;20.42;15.68;;;26.20;99.90;;;;;;5034116;28;20295;-86
2022/07/09 12:05:27;;;;;;;13.23;11.40;;;26.00;99.90;;;;;;5018526;28;20133;-86
2022/07/09 12:07:53;;;;;;;10.27;5.55;;;26.20;99.90;;;;;;5015923;28;20053;-85
2022/07/09 12:10:29;;;;;;;11.13;6.03;;;25.90;99.90;;;;;;5001489;28;20445;-86
2022/07/09 12:12:56;;;;;;;8.82;6.00;;;26.40;99.90;;;;;;4993135;28;20411;-85
2022/07/09 12:15:23;;;;;;;6.05;1.88;;;26.00;99.90;;;;;;5020663;28;20125;-85
2022/07/09 12:17:54;;;;;;;6.85;1.83;;;26.10;99.90;;;;;;5030072;28;20053;-84
2022/07/09 12:20:25;;;;;;;10.45;4.68;;;26.50;99.60;;;;;;5031637;28;20105;-84
2022/07/09 12:22:52;;;;;;;5.68;1.67;;;26.60;99.40;;;;;;4987541;28;20042;-85
2022/07/09 12:25:20;;;;;;;14.15;9.07;;;26.70;99.90;;;;;;5021045;28;20052;-84
2022/07/09 12:27:48;;;;;;;19.42;16.83;;;27.20;99.00;;;;;;4999890;28;20053;-85
2022/07/09 12:30:17;;;;;;;7.78;3.53;;;26.80;97.10;;;;;;4996995;28;20366;-84
2022/07/09 12:32:44;;;;;;;6.35;3.10;;;26.90;95.20;;;;;;4942086;28;20046;-85
2022/07/09 12:35:11;;;;;;;46.05;41.35;;;26.60;93.50;;;;;;5036664;28;20037;-85
2022/07/09 12:37:38;;;;;;;4.47;1.52;;;26.30;96.20;;;;;;4965320;28;20064;-85
2022/07/09 12:40:06;;;;;;;10.18;7.47;;;26.60;94.00;;;;;;5033716;28;20042;-86
2022/07/09 12:42:33;;;;;;;5.05;2.20;;;26.40;95.70;;;;;;4984066;28;20337;-86
2022/07/09 12:44:59;;;;;;;6.97;2.03;;;26.30;92.60;;;;;;4984360;28;20733;-86
2022/07/09 12:47:26;;;;;;;7.68;5.13;;;26.40;94.20;;;;;;5017978;28;20409;-86
2022/07/09 12:49:52;;;;;;;5.95;2.90;;;26.70;88.50;;;;;;4984502;28;20046;-85
2022/07/09 12:52:18;;;;;;;8.57;3.95;;;26.30;88.90;;;;;;4969443;28;20588;-85
2022/07/09 12:54:45;;;;;;;5.22;1.10;;;26.40;84.80;;;;;;4983698;28;20512;-85
2022/07/09 12:57:11;;;;;;;5.80;3.28;;;26.30;74.90;;;;;;5003165;28;20073;-86
2022/07/09 12:59:38;;;;;;;6.55;2.78;;;25.90;81.90;;;;;;4970739;28;20508;-86